createdAt,value
2022-09-13T00:01:38.306Z,8.00
2022-09-13T00:06:41.515Z,7.95
2022-09-13T00:11:44.929Z,7.84
2022-09-13T00:16:48.195Z,7.78
2022-09-13T00:21:51.550Z,7.80
2022-09-13T00:26:54.654Z,7.80
2022-09-13T00:31:58.426Z,7.76
2022-09-13T00:37:01.686Z,7.73
2022-09-13T00:42:05.201Z,7.73
2022-09-13T00:47:08.513Z,7.77
2022-09-13T00:52:16.352Z,7.82
2022-09-13T00:57:22.531Z,7.88
2022-09-13T01:02:28.167Z,7.95
2022-09-13T01:07:31.586Z,8.00
2022-09-13T01:13:05.002Z,8.00
2022-09-13T01:18:09.962Z,7.98
2022-09-13T01:24:07.475Z,7.99
2022-09-13T01:29:38.391Z,7.96
2022-09-13T01:34:59.929Z,7.91
2022-09-13T01:40:14.733Z,7.82
2022-09-13T01:45:17.918Z,7.72
2022-09-13T01:50:36.896Z,7.66
2022-09-13T01:55:47.068Z,7.65
2022-09-13T02:01:15.534Z,7.62
2022-09-13T02:06:24.510Z,7.61
2022-09-13T02:11:28.744Z,7.57
2022-09-13T02:16:34.139Z,7.53
2022-09-13T02:21:44.889Z,7.50
2022-09-13T02:26:53.625Z,7.46
2022-09-13T02:32:24.692Z,7.41
2022-09-13T02:37:32.165Z,7.37
2022-09-13T02:42:44.111Z,7.35
2022-09-13T02:48:16.748Z,7.31
2022-09-13T02:53:27.185Z,7.28
2022-09-13T02:59:03.582Z,7.31
2022-09-13T03:04:08.008Z,7.34
2022-09-13T03:09:12.384Z,7.33
2022-09-13T03:14:37.876Z,7.34
2022-09-13T03:20:09.760Z,7.35
2022-09-13T03:25:20.848Z,7.36
2022-09-13T03:30:24.262Z,7.36
2022-09-13T03:35:36.481Z,7.36
2022-09-13T03:40:52.147Z,7.35
2022-09-13T03:46:00.475Z,7.35
2022-09-13T03:51:08.019Z,7.36
2022-09-13T03:56:20.203Z,7.36
2022-09-13T04:01:25.159Z,7.32
2022-09-13T04:06:28.401Z,7.21
2022-09-13T04:11:33.039Z,7.11
2022-09-13T04:16:36.271Z,7.04
2022-09-13T04:21:39.557Z,6.96
2022-09-13T04:26:42.977Z,6.95
2022-09-13T04:31:47.245Z,6.97
2022-09-13T04:36:52.811Z,6.97
2022-09-13T04:41:56.077Z,7.08
2022-09-13T04:47:00.722Z,7.15
2022-09-13T04:52:04.336Z,7.21
2022-09-13T04:57:07.753Z,7.35
2022-09-13T05:02:11.300Z,7.47
2022-09-13T05:07:14.579Z,7.55
2022-09-13T05:12:18.094Z,7.73
2022-09-13T05:17:22.062Z,7.96
2022-09-13T05:22:25.328Z,8.16
2022-09-13T05:27:28.537Z,8.39
2022-09-13T05:32:32.871Z,8.63
2022-09-13T05:37:39.049Z,8.92
2022-09-13T05:42:42.362Z,9.21
2022-09-13T05:47:45.773Z,9.47
2022-09-13T05:52:55.845Z,9.72
2022-09-13T05:57:59.152Z,10.00
2022-09-13T06:03:02.365Z,10.35
2022-09-13T06:08:05.675Z,10.68
2022-09-13T06:13:09.085Z,11.06
2022-09-13T06:18:12.294Z,11.51
2022-09-13T06:23:16.695Z,11.97
2022-09-13T06:28:21.291Z,12.46
2022-09-13T06:33:24.579Z,12.98
2022-09-13T06:38:27.789Z,13.36
2022-09-13T06:43:31.508Z,13.77
2022-09-13T06:48:36.620Z,14.12
2022-09-13T06:53:42.125Z,14.40
2022-09-13T06:58:48.339Z,14.48
2022-09-13T07:04:13.120Z,14.51
2022-09-13T07:09:21.910Z,14.64
2022-09-13T07:14:27.749Z,14.70
2022-09-13T07:19:31.753Z,14.80
2022-09-13T07:24:35.064Z,14.85
2022-09-13T07:29:38.377Z,14.97
2022-09-13T07:34:41.685Z,15.17
2022-09-13T07:39:44.904Z,15.47
2022-09-13T07:44:48.204Z,15.78
2022-09-13T07:49:51.626Z,16.00
2022-09-13T07:54:54.928Z,16.19
2022-09-13T07:59:58.138Z,16.50
2022-09-13T08:05:01.656Z,16.75
2022-09-13T08:10:05.576Z,17.03
2022-09-13T08:15:08.898Z,17.39
2022-09-13T08:20:12.404Z,17.72
2022-09-13T08:25:15.713Z,18.14
2022-09-13T08:30:19.048Z,18.42
2022-09-13T08:35:22.336Z,18.54
2022-09-13T08:40:29.435Z,18.65
2022-09-13T08:45:33.156Z,18.88
2022-09-13T08:50:38.512Z,19.02
2022-09-13T08:56:02.816Z,19.15
2022-09-13T09:01:12.606Z,19.31
2022-09-13T09:06:17.529Z,19.34
2022-09-13T09:11:39.416Z,19.44
2022-09-13T09:17:05.519Z,19.61
2022-09-13T09:22:17.532Z,19.74
2022-09-13T09:27:22.075Z,19.94
2022-09-13T09:32:37.773Z,20.12
2022-09-13T09:37:42.734Z,20.25
2022-09-13T09:42:49.850Z,20.40
2022-09-13T09:47:55.187Z,20.54
2022-09-13T09:53:08.629Z,20.76
2022-09-13T09:58:17.085Z,21.11
2022-09-13T10:03:27.040Z,21.46
2022-09-13T10:08:34.536Z,21.71
2022-09-13T10:13:39.078Z,21.68
2022-09-13T10:18:44.935Z,21.60
2022-09-13T10:24:17.750Z,21.41
2022-09-13T10:29:21.162Z,21.42
2022-09-13T10:34:30.208Z,21.36
2022-09-13T10:39:36.799Z,21.52
2022-09-13T10:44:53.943Z,21.73
2022-09-13T10:50:02.283Z,21.58
2022-09-13T10:55:25.639Z,21.43
2022-09-13T11:00:46.424Z,21.42
2022-09-13T11:06:24.797Z,21.48
2022-09-13T11:12:03.230Z,21.35
2022-09-13T11:17:24.661Z,21.16
2022-09-13T11:22:46.199Z,20.94
2022-09-13T11:28:14.906Z,21.00
2022-09-13T11:33:32.760Z,20.90
2022-09-13T11:39:08.632Z,20.97
2022-09-13T11:44:15.226Z,21.05
2022-09-13T11:49:53.756Z,21.06
2022-09-13T11:55:05.769Z,20.78
2022-09-13T12:00:22.937Z,20.62
2022-09-13T12:05:33.281Z,20.49
2022-09-13T12:11:05.471Z,20.30
2022-09-13T12:16:13.422Z,20.31
2022-09-13T12:21:31.649Z,20.47
2022-09-13T12:26:59.229Z,20.63
2022-09-13T12:32:05.955Z,20.96
2022-09-13T12:37:17.626Z,21.18
2022-09-13T12:42:32.819Z,21.33
2022-09-13T12:47:49.755Z,21.58
2022-09-13T12:53:01.862Z,21.73
2022-09-13T12:58:30.364Z,21.78
2022-09-13T13:03:43.942Z,21.93
2022-09-13T13:08:52.897Z,22.21
2022-09-13T13:14:09.787Z,22.47
2022-09-13T13:19:34.363Z,22.56
2022-09-13T13:24:38.555Z,22.56
2022-09-13T13:29:42.042Z,22.56
2022-09-13T13:34:49.761Z,22.93
2022-09-13T13:40:26.144Z,23.29
2022-09-13T13:45:29.590Z,23.21
2022-09-13T13:50:36.242Z,22.93
2022-09-13T13:55:49.370Z,22.48
2022-09-13T14:00:55.101Z,21.84
2022-09-13T14:06:12.701Z,21.42
2022-09-13T14:11:44.478Z,21.20
2022-09-13T14:17:25.330Z,20.85
2022-09-13T14:22:29.629Z,20.43
2022-09-13T14:27:37.987Z,20.09
2022-09-13T14:32:46.939Z,19.85
2022-09-13T14:37:50.390Z,19.72
2022-09-13T14:42:54.112Z,19.64
2022-09-13T14:48:04.557Z,19.59
2022-09-13T14:53:14.554Z,19.47
2022-09-13T14:58:22.985Z,19.31
2022-09-13T15:03:27.628Z,19.23
2022-09-13T15:08:34.113Z,19.14
2022-09-13T15:13:38.701Z,19.03
2022-09-13T15:18:41.962Z,18.94
2022-09-13T15:23:51.522Z,18.80
2022-09-13T15:29:04.386Z,18.63
2022-09-13T15:34:24.048Z,18.51
2022-09-13T15:39:27.565Z,18.44
2022-09-13T15:44:30.977Z,18.36
2022-09-13T15:49:34.391Z,18.23
2022-09-13T15:54:41.547Z,18.17
2022-09-13T15:59:45.007Z,18.09
2022-09-13T16:04:48.831Z,18.02
2022-09-13T16:09:52.854Z,17.95
2022-09-13T16:14:56.166Z,17.79
2022-09-13T16:19:59.375Z,17.65
2022-09-13T16:25:02.685Z,17.54
2022-09-13T16:30:07.328Z,17.44
2022-09-13T16:35:12.681Z,17.37
2022-09-13T16:40:16.253Z,17.31
2022-09-13T16:45:19.934Z,17.29
2022-09-13T16:50:23.398Z,17.23
2022-09-13T16:55:28.154Z,17.18
2022-09-13T17:00:31.598Z,17.09
2022-09-13T17:05:34.701Z,17.00
2022-09-13T17:10:38.626Z,16.91
2022-09-13T17:15:41.797Z,16.89
2022-09-13T17:20:50.173Z,16.89
2022-09-13T17:25:53.475Z,16.88
2022-09-13T17:30:59.456Z,16.88
2022-09-13T17:36:08.754Z,16.89
2022-09-13T17:41:13.477Z,16.90
2022-09-13T17:46:22.656Z,16.90
2022-09-13T17:51:28.751Z,16.91
2022-09-13T17:56:37.933Z,16.90
2022-09-13T18:01:45.294Z,16.88
2022-09-13T18:06:50.578Z,16.85
2022-09-13T18:11:54.199Z,16.79
2022-09-13T18:16:58.325Z,16.76
2022-09-13T18:22:02.249Z,16.74
2022-09-13T18:27:05.476Z,16.71
2022-09-13T18:32:08.666Z,16.67
2022-09-13T18:37:11.977Z,16.63
2022-09-13T18:42:15.405Z,16.61
2022-09-13T18:47:19.417Z,16.58
2022-09-13T18:52:22.831Z,16.57
2022-09-13T18:57:26.448Z,16.55
2022-09-13T19:02:30.000Z,16.51
2022-09-13T19:07:33.275Z,16.42
2022-09-13T19:12:36.483Z,16.33
2022-09-13T19:17:39.794Z,16.19
2022-09-13T19:22:45.643Z,16.07
2022-09-13T19:27:48.976Z,16.03
2022-09-13T19:32:52.185Z,16.00
2022-09-13T19:37:55.596Z,15.97
2022-09-13T19:42:58.909Z,15.90
2022-09-13T19:48:37.108Z,15.84
2022-09-13T19:53:46.606Z,15.77
2022-09-13T19:58:50.210Z,15.69
2022-09-13T20:03:56.438Z,15.61
2022-09-13T20:09:01.770Z,15.57
2022-09-13T20:14:06.782Z,15.57
2022-09-13T20:19:38.684Z,15.57
2022-09-13T20:24:39.428Z,15.55
2022-09-13T20:29:42.720Z,15.52
2022-09-13T20:34:46.869Z,15.48
2022-09-13T20:39:51.122Z,15.45
2022-09-13T20:44:56.568Z,15.36
2022-09-13T20:49:59.771Z,15.21
2022-09-13T20:55:02.979Z,15.07
2022-09-13T21:00:08.886Z,14.92
2022-09-13T21:05:12.367Z,14.82
2022-09-13T21:10:15.677Z,14.77
2022-09-13T21:15:20.417Z,14.71
2022-09-13T21:20:23.731Z,14.65
2022-09-13T21:25:27.144Z,14.61
2022-09-13T21:30:30.400Z,14.53
2022-09-13T21:35:41.113Z,14.44
2022-09-13T21:40:54.488Z,14.32
2022-09-13T21:46:17.061Z,14.20
2022-09-13T21:51:24.972Z,14.12
2022-09-13T21:56:32.016Z,14.01
2022-09-13T22:02:00.698Z,13.91
2022-09-13T22:07:03.980Z,13.79
2022-09-13T22:12:07.298Z,13.69
2022-09-13T22:17:10.668Z,13.63
2022-09-13T22:22:14.117Z,13.57
2022-09-13T22:27:17.327Z,13.50
2022-09-13T22:32:23.306Z,13.44
2022-09-13T22:37:27.736Z,13.36
2022-09-13T22:42:31.049Z,13.27
2022-09-13T22:47:34.258Z,13.17
2022-09-13T22:52:37.569Z,13.08
2022-09-13T22:57:40.776Z,12.99
2022-09-13T23:02:47.069Z,12.91
2022-09-13T23:07:50.571Z,12.82
2022-09-13T23:12:53.779Z,12.74
2022-09-13T23:17:57.602Z,12.68
2022-09-13T23:23:00.811Z,12.62
2022-09-13T23:28:04.122Z,12.54
2022-09-13T23:33:08.660Z,12.49
2022-09-13T23:38:12.074Z,12.45
2022-09-13T23:43:15.179Z,12.41
2022-09-13T23:48:18.390Z,12.35
2022-09-13T23:53:21.490Z,12.30
2022-09-13T23:58:25.212Z,12.27
